Spring Run, Pennsylvania
Current Conditions -  °F | °C
As of 3:53 PM on Monday 24 Nov 2014 (Local Time) from KHGR Reporting Station
Clear Clear  
Wind Chill: 70°   Ceiling: Unl
Heat Index: 70°   Visibility: 10mi
Dew Point: 50°   Wind: 18mph
Humidity: 49%   Direction: 190°S
Pressure: 29.57"   Gusts: NA
Location:  40.14°N, 77.77°W
Report Text: KHGR 242053Z AUTO 19016KT 10SM CLR 21/10 A2957 RMK AO2 PK WND 18028/2015 SLP018 T02110100 53012
Loading
Personal Weather Stations






























Interactive Weather Map New forecast layout! Learn more

10-Day Weather Forecast

Advertisements
Track Severe Weather on mobile